AIC5RB VABB-VOBL
Flight info
| Callsign | AIC5RB |
|---|---|
| Flight time | 1h 10m |
| Altitude | 39000 |
| Route | VEVAK2A EPKOS Q9 RIKBU RIKBU7E |
| Aircraft | B772/H-SDE2E3FGHIJ5LORVWXY/LB1D1 |
Departure
| Time | 2026-05-08 08:06 |
|---|---|
| Airport | Chhatrapati Shivaji Maharaj International Airport (VABB) |
Arrival
| Time | 2026-05-08 09:17 |
|---|---|
| Airport | Kempegowda International Airport Bengaluru (VOBL) |
| Time | Latitude | Longitude | Altitude | Speed | Heading |
|---|---|---|---|---|---|
| 2026-05-08 07:51 | 19.09315 | 72.87209 | 54 ft | 0 kts | 337° |
| 2026-05-08 07:58 | 19.09298 | 72.87217 | 46 ft | 4 kts | 337° |
| 2026-05-08 07:58 | 19.09277 | 72.87226 | 46 ft | 4 kts | 345° |
| 2026-05-08 07:59 | 19.09254 | 72.87226 | 46 ft | 4 kts | 38° |
| 2026-05-08 07:59 | 19.09239 | 72.87204 | 46 ft | 4 kts | 76° |
| 2026-05-08 07:59 | 19.09236 | 72.87178 | 46 ft | 2 kts | 89° |
| 2026-05-08 07:59 | 19.09236 | 72.87176 | 46 ft | 0 kts | 89° |
| 2026-05-08 08:02 | 19.09233 | 72.87213 | 52 ft | 12 kts | 101° |
| 2026-05-08 08:02 | 19.09156 | 72.87263 | 49 ft | 15 kts | 177° |
| 2026-05-08 08:02 | 19.09067 | 72.87277 | 50 ft | 12 kts | 141° |
| 2026-05-08 08:02 | 19.09057 | 72.87292 | 49 ft | 3 kts | 118° |
| 2026-05-08 08:03 | 19.09052 | 72.87332 | 49 ft | 9 kts | 92° |
| 2026-05-08 08:03 | 19.09051 | 72.87428 | 49 ft | 15 kts | 89° |
| 2026-05-08 08:03 | 19.09053 | 72.87536 | 48 ft | 15 kts | 89° |
| 2026-05-08 08:03 | 19.09055 | 72.87644 | 48 ft | 15 kts | 89° |
| 2026-05-08 08:04 | 19.09056 | 72.87752 | 48 ft | 15 kts | 89° |
| 2026-05-08 08:04 | 19.09058 | 72.87860 | 50 ft | 15 kts | 89° |
| 2026-05-08 08:04 | 19.09061 | 72.87962 | 53 ft | 12 kts | 88° |
| 2026-05-08 08:04 | 19.09047 | 72.88044 | 49 ft | 11 kts | 132° |
| 2026-05-08 08:05 | 19.09003 | 72.88053 | 51 ft | 3 kts | 180° |
| 2026-05-08 08:05 | 19.08938 | 72.88050 | 48 ft | 12 kts | 193° |
| 2026-05-08 08:05 | 19.08887 | 72.87977 | 48 ft | 19 kts | 264° |
| 2026-05-08 08:05 | 19.08885 | 72.87725 | 47 ft | 60 kts | 269° |
| 2026-05-08 08:06 | 19.08874 | 72.87001 | 51 ft | 136 kts | 269° |
| 2026-05-08 08:06 | 19.08866 | 72.85848 | 527 ft | 164 kts | 270° |
| 2026-05-08 08:06 | 19.08852 | 72.84648 | 1512 ft | 166 kts | 272° |
| 2026-05-08 08:06 | 19.08835 | 72.83360 | 2147 ft | 187 kts | 273° |
| 2026-05-08 08:07 | 19.08831 | 72.81853 | 2422 ft | 218 kts | 271° |
| 2026-05-08 08:07 | 19.08438 | 72.80206 | 2495 ft | 253 kts | 239° |
| 2026-05-08 08:07 | 19.07070 | 72.78931 | 2818 ft | 277 kts | 205° |
| 2026-05-08 08:07 | 19.05185 | 72.78473 | 3474 ft | 280 kts | 186° |
| 2026-05-08 08:08 | 19.03219 | 72.78297 | 4144 ft | 285 kts | 184° |
| 2026-05-08 08:08 | 19.01230 | 72.78122 | 4967 ft | 287 kts | 186° |
| 2026-05-08 08:08 | 18.99519 | 72.77932 | 5652 ft | 288 kts | 187° |
| 2026-05-08 08:08 | 18.97720 | 72.77692 | 6338 ft | 291 kts | 187° |
| 2026-05-08 08:09 | 18.95706 | 72.77390 | 7075 ft | 293 kts | 187° |
| 2026-05-08 08:09 | 18.93714 | 72.77067 | 7842 ft | 294 kts | 187° |
| 2026-05-08 08:09 | 18.91674 | 72.76724 | 8703 ft | 293 kts | 187° |
| 2026-05-08 08:09 | 18.89651 | 72.76377 | 9521 ft | 295 kts | 187° |
| 2026-05-08 08:10 | 18.87647 | 72.76029 | 10240 ft | 299 kts | 187° |
| 2026-05-08 08:10 | 18.85519 | 72.75658 | 10571 ft | 324 kts | 187° |
| 2026-05-08 08:10 | 18.83239 | 72.75260 | 11118 ft | 337 kts | 187° |
| 2026-05-08 08:10 | 18.80907 | 72.74850 | 11995 ft | 343 kts | 187° |
| 2026-05-08 08:11 | 18.78531 | 72.74608 | 12987 ft | 344 kts | 178° |
| 2026-05-08 08:11 | 18.76138 | 72.74864 | 13948 ft | 347 kts | 169° |
| 2026-05-08 08:11 | 18.73788 | 72.75542 | 14733 ft | 354 kts | 162° |
| 2026-05-08 08:11 | 18.71414 | 72.76368 | 15431 ft | 364 kts | 161° |
| 2026-05-08 08:12 | 18.68988 | 72.77239 | 16199 ft | 372 kts | 160° |
| 2026-05-08 08:12 | 18.66516 | 72.78127 | 17000 ft | 379 kts | 160° |
| 2026-05-08 08:12 | 18.63996 | 72.79026 | 17779 ft | 386 kts | 160° |
| 2026-05-08 08:12 | 18.61436 | 72.79931 | 18480 ft | 392 kts | 160° |
| 2026-05-08 08:13 | 18.58819 | 72.80848 | 19172 ft | 397 kts | 161° |
| 2026-05-08 08:13 | 18.56180 | 72.81768 | 19882 ft | 402 kts | 161° |
| 2026-05-08 08:13 | 18.53508 | 72.82697 | 20575 ft | 407 kts | 162° |
| 2026-05-08 08:13 | 18.50802 | 72.83635 | 21256 ft | 412 kts | 162° |
| 2026-05-08 08:14 | 18.48057 | 72.84587 | 21941 ft | 417 kts | 162° |
| 2026-05-08 08:14 | 18.45316 | 72.85536 | 22622 ft | 422 kts | 162° |
| 2026-05-08 08:14 | 18.42508 | 72.86509 | 23270 ft | 428 kts | 162° |
| 2026-05-08 08:14 | 18.39662 | 72.87494 | 23836 ft | 433 kts | 162° |
| 2026-05-08 08:15 | 18.36770 | 72.88496 | 24466 ft | 437 kts | 162° |
| 2026-05-08 08:15 | 18.33875 | 72.89498 | 25119 ft | 439 kts | 162° |
| 2026-05-08 08:15 | 18.30956 | 72.90509 | 25766 ft | 442 kts | 162° |
| 2026-05-08 08:15 | 18.28020 | 72.91524 | 26379 ft | 446 kts | 162° |
| 2026-05-08 08:16 | 18.25060 | 72.92548 | 26975 ft | 450 kts | 163° |
| 2026-05-08 08:16 | 18.22067 | 72.93583 | 27556 ft | 454 kts | 163° |
| 2026-05-08 08:16 | 18.19052 | 72.94626 | 28145 ft | 458 kts | 163° |
| 2026-05-08 08:16 | 18.16015 | 72.95675 | 28700 ft | 461 kts | 163° |
| 2026-05-08 08:17 | 18.12952 | 72.96744 | 29242 ft | 465 kts | 161° |
| 2026-05-08 08:17 | 18.10007 | 72.98092 | 29747 ft | 470 kts | 153° |
| 2026-05-08 08:17 | 18.07185 | 72.99858 | 30195 ft | 474 kts | 147° |
| 2026-05-08 08:17 | 18.04555 | 73.01967 | 30669 ft | 477 kts | 139° |
| 2026-05-08 08:18 | 18.02088 | 73.04304 | 31138 ft | 478 kts | 138° |
| 2026-05-08 08:18 | 17.99638 | 73.06684 | 31610 ft | 480 kts | 137° |
| 2026-05-08 08:18 | 17.97186 | 73.09081 | 32002 ft | 483 kts | 137° |
| 2026-05-08 08:18 | 17.94717 | 73.11485 | 32382 ft | 485 kts | 138° |
| 2026-05-08 08:19 | 17.92229 | 73.13890 | 32749 ft | 488 kts | 138° |
| 2026-05-08 08:19 | 17.89720 | 73.16302 | 33132 ft | 490 kts | 138° |
| 2026-05-08 08:19 | 17.87191 | 73.18720 | 33516 ft | 492 kts | 139° |
| 2026-05-08 08:19 | 17.84656 | 73.21138 | 33873 ft | 493 kts | 139° |
| 2026-05-08 08:20 | 17.82109 | 73.23562 | 34174 ft | 495 kts | 139° |
| 2026-05-08 08:20 | 17.79582 | 73.25965 | 34442 ft | 497 kts | 139° |
| 2026-05-08 08:20 | 17.77018 | 73.28404 | 34705 ft | 498 kts | 139° |
| 2026-05-08 08:20 | 17.74448 | 73.30850 | 35032 ft | 499 kts | 139° |
| 2026-05-08 08:21 | 17.71882 | 73.33291 | 35409 ft | 497 kts | 139° |
| 2026-05-08 08:21 | 17.69319 | 73.35728 | 35809 ft | 496 kts | 139° |
| 2026-05-08 08:21 | 17.66765 | 73.38156 | 36174 ft | 495 kts | 139° |
| 2026-05-08 08:21 | 17.64212 | 73.40582 | 36518 ft | 495 kts | 139° |
| 2026-05-08 08:22 | 17.61657 | 73.43008 | 36865 ft | 495 kts | 139° |
| 2026-05-08 08:22 | 17.59103 | 73.45433 | 37221 ft | 494 kts | 139° |
| 2026-05-08 08:22 | 17.56560 | 73.47846 | 37567 ft | 494 kts | 139° |
| 2026-05-08 08:22 | 17.54013 | 73.50262 | 37906 ft | 493 kts | 139° |
| 2026-05-08 08:23 | 17.51468 | 73.52675 | 38232 ft | 493 kts | 139° |
| 2026-05-08 08:23 | 17.48931 | 73.55081 | 38563 ft | 492 kts | 139° |
| 2026-05-08 08:23 | 17.46391 | 73.57487 | 38798 ft | 493 kts | 139° |
| 2026-05-08 08:24 | 17.41286 | 73.62321 | 38856 ft | 493 kts | 139° |
| 2026-05-08 08:24 | 17.36225 | 73.67111 | 38865 ft | 490 kts | 139° |
| 2026-05-08 08:25 | 17.31207 | 73.71856 | 38866 ft | 489 kts | 139° |
| 2026-05-08 08:25 | 17.26155 | 73.76628 | 38870 ft | 489 kts | 139° |
| 2026-05-08 08:26 | 17.21107 | 73.81393 | 38892 ft | 488 kts | 139° |
| 2026-05-08 08:26 | 17.16058 | 73.86155 | 38897 ft | 489 kts | 139° |
| 2026-05-08 08:27 | 17.10999 | 73.90925 | 38883 ft | 490 kts | 139° |
| 2026-05-08 08:27 | 17.05929 | 73.95701 | 38889 ft | 490 kts | 139° |
| 2026-05-08 08:28 | 17.00903 | 74.00431 | 38903 ft | 489 kts | 139° |
| 2026-05-08 08:28 | 16.95852 | 74.05183 | 38907 ft | 489 kts | 139° |
| 2026-05-08 08:29 | 16.90796 | 74.09936 | 38902 ft | 488 kts | 139° |
| 2026-05-08 08:29 | 16.86129 | 74.15081 | 38913 ft | 489 kts | 129° |
| 2026-05-08 08:30 | 16.82645 | 74.19720 | 38935 ft | 488 kts | 129° |
| 2026-05-08 08:30 | 16.75664 | 74.29053 | 38941 ft | 488 kts | 129° |
| 2026-05-08 08:31 | 16.72162 | 74.33672 | 38945 ft | 488 kts | 129° |
| 2026-05-08 08:31 | 16.67251 | 74.40126 | 38942 ft | 488 kts | 129° |
| 2026-05-08 08:32 | 16.63745 | 74.44734 | 38938 ft | 488 kts | 129° |
| 2026-05-08 08:32 | 16.59518 | 74.50287 | 38935 ft | 487 kts | 129° |
| 2026-05-08 08:33 | 16.55301 | 74.55826 | 38925 ft | 488 kts | 129° |
| 2026-05-08 08:34 | 16.46326 | 74.67595 | 38919 ft | 488 kts | 129° |
| 2026-05-08 08:34 | 16.42095 | 74.73144 | 38917 ft | 488 kts | 129° |
| 2026-05-08 08:35 | 16.37899 | 74.78645 | 38912 ft | 488 kts | 129° |
| 2026-05-08 08:35 | 16.33679 | 74.84172 | 38915 ft | 488 kts | 129° |
| 2026-05-08 08:36 | 16.29452 | 74.89705 | 38912 ft | 488 kts | 129° |
| 2026-05-08 08:36 | 16.25224 | 74.95234 | 38902 ft | 487 kts | 129° |
| 2026-05-08 08:37 | 16.20999 | 75.00756 | 38911 ft | 487 kts | 129° |
| 2026-05-08 08:37 | 16.16779 | 75.06268 | 38904 ft | 486 kts | 129° |
| 2026-05-08 08:38 | 16.12595 | 75.11727 | 38902 ft | 485 kts | 129° |
| 2026-05-08 08:38 | 16.08389 | 75.17211 | 38902 ft | 485 kts | 129° |
| 2026-05-08 08:39 | 16.04180 | 75.22696 | 38899 ft | 484 kts | 130° |
| 2026-05-08 08:39 | 15.99977 | 75.28167 | 38895 ft | 484 kts | 130° |
| 2026-05-08 08:40 | 15.95782 | 75.33625 | 38891 ft | 483 kts | 130° |
| 2026-05-08 08:40 | 15.91580 | 75.39087 | 38889 ft | 483 kts | 130° |
| 2026-05-08 08:41 | 15.87380 | 75.44543 | 38889 ft | 483 kts | 130° |
| 2026-05-08 08:41 | 15.83211 | 75.49955 | 38886 ft | 483 kts | 130° |
| 2026-05-08 08:42 | 15.79012 | 75.55401 | 38882 ft | 483 kts | 130° |
| 2026-05-08 08:42 | 15.74814 | 75.60843 | 38875 ft | 483 kts | 130° |
| 2026-05-08 08:43 | 15.71321 | 75.65367 | 38881 ft | 483 kts | 130° |
| 2026-05-08 08:43 | 15.67124 | 75.70799 | 38878 ft | 483 kts | 130° |
| 2026-05-08 08:44 | 15.62921 | 75.76236 | 38873 ft | 483 kts | 130° |
| 2026-05-08 08:44 | 15.58716 | 75.81671 | 38873 ft | 483 kts | 130° |
| 2026-05-08 08:45 | 15.54508 | 75.87108 | 38872 ft | 483 kts | 130° |
| 2026-05-08 08:45 | 15.50295 | 75.92545 | 38870 ft | 483 kts | 130° |
| 2026-05-08 08:46 | 15.46105 | 75.97947 | 38864 ft | 483 kts | 130° |
| 2026-05-08 08:46 | 15.41881 | 76.03391 | 38861 ft | 484 kts | 130° |
| 2026-05-08 08:47 | 15.37659 | 76.08829 | 38863 ft | 484 kts | 130° |
| 2026-05-08 08:47 | 15.33438 | 76.14262 | 38862 ft | 484 kts | 130° |
| 2026-05-08 08:48 | 15.29236 | 76.19667 | 38864 ft | 483 kts | 130° |
| 2026-05-08 08:48 | 15.25020 | 76.25087 | 38861 ft | 483 kts | 130° |
| 2026-05-08 08:49 | 15.20799 | 76.30508 | 38870 ft | 482 kts | 130° |
| 2026-05-08 08:49 | 15.16568 | 76.35813 | 38874 ft | 480 kts | 136° |
| 2026-05-08 08:50 | 15.13981 | 76.37968 | 38564 ft | 474 kts | 148° |
| 2026-05-08 08:50 | 15.11203 | 76.39785 | 38109 ft | 469 kts | 150° |
| 2026-05-08 08:50 | 15.08413 | 76.41518 | 37657 ft | 465 kts | 150° |
| 2026-05-08 08:50 | 15.05644 | 76.43228 | 37230 ft | 460 kts | 150° |
| 2026-05-08 08:51 | 15.02952 | 76.44915 | 36821 ft | 456 kts | 149° |
| 2026-05-08 08:51 | 15.00264 | 76.46629 | 36423 ft | 452 kts | 149° |
| 2026-05-08 08:51 | 14.97606 | 76.48349 | 36014 ft | 448 kts | 149° |
| 2026-05-08 08:51 | 14.94982 | 76.50060 | 35608 ft | 444 kts | 149° |
| 2026-05-08 08:52 | 14.92374 | 76.51768 | 35183 ft | 442 kts | 149° |
| 2026-05-08 08:52 | 14.89793 | 76.53462 | 34770 ft | 439 kts | 149° |
| 2026-05-08 08:52 | 14.87212 | 76.55154 | 34329 ft | 437 kts | 149° |
| 2026-05-08 08:52 | 14.84647 | 76.56833 | 33900 ft | 435 kts | 149° |
| 2026-05-08 08:53 | 14.82120 | 76.58486 | 33440 ft | 433 kts | 149° |
| 2026-05-08 08:53 | 14.79574 | 76.60151 | 32994 ft | 430 kts | 149° |
| 2026-05-08 08:53 | 14.77054 | 76.61798 | 32569 ft | 427 kts | 149° |
| 2026-05-08 08:53 | 14.74549 | 76.63435 | 32156 ft | 425 kts | 149° |
| 2026-05-08 08:54 | 14.72054 | 76.65066 | 31742 ft | 422 kts | 149° |
| 2026-05-08 08:54 | 14.69576 | 76.66684 | 31334 ft | 420 kts | 149° |
| 2026-05-08 08:54 | 14.67107 | 76.68295 | 30927 ft | 418 kts | 149° |
| 2026-05-08 08:54 | 14.64656 | 76.69895 | 30526 ft | 416 kts | 149° |
| 2026-05-08 08:55 | 14.62245 | 76.71469 | 30115 ft | 415 kts | 149° |
| 2026-05-08 08:55 | 14.59810 | 76.73057 | 29668 ft | 413 kts | 148° |
| 2026-05-08 08:55 | 14.57391 | 76.74636 | 29188 ft | 411 kts | 148° |
| 2026-05-08 08:55 | 14.54983 | 76.76206 | 28725 ft | 408 kts | 148° |
| 2026-05-08 08:56 | 14.52587 | 76.77768 | 28277 ft | 406 kts | 148° |
| 2026-05-08 08:56 | 14.50204 | 76.79322 | 27828 ft | 403 kts | 148° |
| 2026-05-08 08:56 | 14.47834 | 76.80866 | 27395 ft | 401 kts | 148° |
| 2026-05-08 08:56 | 14.45473 | 76.82404 | 26960 ft | 399 kts | 148° |
| 2026-05-08 08:57 | 14.43126 | 76.83933 | 26539 ft | 398 kts | 148° |
| 2026-05-08 08:57 | 14.40795 | 76.85450 | 26096 ft | 397 kts | 148° |
| 2026-05-08 08:57 | 14.38467 | 76.86966 | 25676 ft | 396 kts | 148° |
| 2026-05-08 08:57 | 14.36135 | 76.88484 | 25241 ft | 395 kts | 148° |
| 2026-05-08 08:58 | 14.33806 | 76.90000 | 24804 ft | 395 kts | 148° |
| 2026-05-08 08:58 | 14.31479 | 76.91514 | 24394 ft | 395 kts | 148° |
| 2026-05-08 08:58 | 14.29155 | 76.93025 | 23964 ft | 395 kts | 148° |
| 2026-05-08 08:58 | 14.26835 | 76.94534 | 23537 ft | 395 kts | 148° |
| 2026-05-08 08:59 | 14.24513 | 76.96044 | 23059 ft | 395 kts | 148° |
| 2026-05-08 08:59 | 14.22217 | 76.97536 | 22611 ft | 394 kts | 148° |
| 2026-05-08 08:59 | 14.19905 | 76.99040 | 22168 ft | 392 kts | 148° |
| 2026-05-08 08:59 | 14.17605 | 77.00538 | 21738 ft | 390 kts | 148° |
| 2026-05-08 09:00 | 14.15320 | 77.02027 | 21304 ft | 389 kts | 148° |
| 2026-05-08 09:00 | 14.13031 | 77.03518 | 20857 ft | 388 kts | 148° |
| 2026-05-08 09:00 | 14.10752 | 77.05003 | 20431 ft | 387 kts | 148° |
| 2026-05-08 09:00 | 14.08480 | 77.06482 | 19976 ft | 386 kts | 148° |
| 2026-05-08 09:01 | 14.06205 | 77.07965 | 19463 ft | 387 kts | 148° |
| 2026-05-08 09:01 | 14.03923 | 77.09450 | 18995 ft | 388 kts | 148° |
| 2026-05-08 09:01 | 14.01655 | 77.10924 | 18598 ft | 386 kts | 148° |
| 2026-05-08 09:01 | 13.99386 | 77.12399 | 18246 ft | 382 kts | 148° |
| 2026-05-08 09:02 | 13.97146 | 77.13855 | 17857 ft | 379 kts | 148° |
| 2026-05-08 09:02 | 13.94923 | 77.15299 | 17431 ft | 376 kts | 147° |
| 2026-05-08 09:02 | 13.92715 | 77.16733 | 17019 ft | 374 kts | 147° |
| 2026-05-08 09:02 | 13.90525 | 77.18156 | 16600 ft | 371 kts | 147° |
| 2026-05-08 09:03 | 13.88373 | 77.19556 | 16197 ft | 369 kts | 147° |
| 2026-05-08 09:03 | 13.86208 | 77.20962 | 15796 ft | 366 kts | 147° |
| 2026-05-08 09:03 | 13.84062 | 77.22350 | 15404 ft | 363 kts | 148° |
| 2026-05-08 09:03 | 13.81818 | 77.23543 | 14997 ft | 362 kts | 155° |
| 2026-05-08 09:04 | 13.79522 | 77.24562 | 14582 ft | 360 kts | 155° |
| 2026-05-08 09:04 | 13.77214 | 77.25559 | 14175 ft | 359 kts | 155° |
| 2026-05-08 09:04 | 13.74915 | 77.26551 | 13792 ft | 356 kts | 155° |
| 2026-05-08 09:04 | 13.72639 | 77.27543 | 13372 ft | 354 kts | 155° |
| 2026-05-08 09:05 | 13.70383 | 77.28534 | 12943 ft | 351 kts | 155° |
| 2026-05-08 09:05 | 13.68150 | 77.29520 | 12527 ft | 348 kts | 154° |
| 2026-05-08 09:05 | 13.65935 | 77.30499 | 12136 ft | 345 kts | 154° |
| 2026-05-08 09:05 | 13.63735 | 77.31472 | 11732 ft | 343 kts | 154° |
| 2026-05-08 09:06 | 13.61547 | 77.32442 | 11329 ft | 341 kts | 154° |
| 2026-05-08 09:06 | 13.59383 | 77.33399 | 10910 ft | 338 kts | 154° |
| 2026-05-08 09:06 | 13.57226 | 77.34355 | 10506 ft | 335 kts | 154° |
| 2026-05-08 09:06 | 13.55019 | 77.35077 | 9943 ft | 337 kts | 165° |
| 2026-05-08 09:07 | 13.52709 | 77.35510 | 9546 ft | 335 kts | 168° |
| 2026-05-08 09:07 | 13.50440 | 77.35864 | 9445 ft | 323 kts | 168° |
| 2026-05-08 09:07 | 13.48257 | 77.36191 | 9349 ft | 311 kts | 169° |
| 2026-05-08 09:07 | 13.46158 | 77.36501 | 9172 ft | 302 kts | 169° |
| 2026-05-08 09:08 | 13.44129 | 77.36800 | 9064 ft | 293 kts | 169° |
| 2026-05-08 09:08 | 13.42121 | 77.37090 | 8951 ft | 284 kts | 169° |
| 2026-05-08 09:08 | 13.40215 | 77.37357 | 8869 ft | 274 kts | 169° |
| 2026-05-08 09:08 | 13.38352 | 77.37611 | 8806 ft | 265 kts | 169° |
| 2026-05-08 09:09 | 13.36555 | 77.37855 | 8671 ft | 258 kts | 169° |
| 2026-05-08 09:09 | 13.34788 | 77.38095 | 8448 ft | 255 kts | 169° |
| 2026-05-08 09:09 | 13.33034 | 77.38333 | 8178 ft | 253 kts | 169° |
| 2026-05-08 09:09 | 13.31296 | 77.38570 | 7953 ft | 251 kts | 169° |
| 2026-05-08 09:10 | 13.29572 | 77.38805 | 7720 ft | 248 kts | 169° |
| 2026-05-08 09:10 | 13.27926 | 77.39192 | 7442 ft | 237 kts | 149° |
| 2026-05-08 09:10 | 13.26718 | 77.40255 | 7187 ft | 226 kts | 124° |
| 2026-05-08 09:10 | 13.25830 | 77.41581 | 6997 ft | 226 kts | 120° |
| 2026-05-08 09:11 | 13.24983 | 77.42949 | 6774 ft | 227 kts | 119° |
| 2026-05-08 09:11 | 13.24148 | 77.44326 | 6548 ft | 226 kts | 118° |
| 2026-05-08 09:11 | 13.23317 | 77.45694 | 6340 ft | 226 kts | 119° |
| 2026-05-08 09:11 | 13.22495 | 77.47044 | 6111 ft | 226 kts | 119° |
| 2026-05-08 09:12 | 13.21693 | 77.48401 | 6064 ft | 218 kts | 119° |
| 2026-05-08 09:12 | 13.21121 | 77.49759 | 6007 ft | 199 kts | 98° |
| 2026-05-08 09:12 | 13.20956 | 77.51136 | 6027 ft | 195 kts | 94° |
| 2026-05-08 09:12 | 13.20869 | 77.52526 | 5917 ft | 196 kts | 91° |
| 2026-05-08 09:13 | 13.20843 | 77.53917 | 5689 ft | 194 kts | 90° |
| 2026-05-08 09:13 | 13.20826 | 77.55311 | 5458 ft | 197 kts | 89° |
| 2026-05-08 09:13 | 13.20815 | 77.56718 | 5207 ft | 193 kts | 89° |
| 2026-05-08 09:13 | 13.20805 | 77.58028 | 4982 ft | 180 kts | 89° |
| 2026-05-08 09:14 | 13.20794 | 77.59285 | 4772 ft | 171 kts | 89° |
| 2026-05-08 09:14 | 13.20785 | 77.60469 | 4522 ft | 160 kts | 90° |
| 2026-05-08 09:14 | 13.20772 | 77.61544 | 4355 ft | 140 kts | 89° |
| 2026-05-08 09:14 | 13.20770 | 77.62506 | 4174 ft | 133 kts | 89° |
| 2026-05-08 09:15 | 13.20760 | 77.63460 | 4021 ft | 132 kts | 89° |
| 2026-05-08 09:15 | 13.20752 | 77.64364 | 3836 ft | 122 kts | 89° |
| 2026-05-08 09:15 | 13.20743 | 77.65279 | 3701 ft | 135 kts | 88° |
| 2026-05-08 09:15 | 13.20734 | 77.66244 | 3525 ft | 137 kts | 86° |
| 2026-05-08 09:16 | 13.20732 | 77.67230 | 3311 ft | 139 kts | 89° |
| 2026-05-08 09:16 | 13.20718 | 77.68204 | 3135 ft | 134 kts | 88° |
| 2026-05-08 09:16 | 13.20715 | 77.69147 | 3018 ft | 126 kts | 88° |
| 2026-05-08 09:16 | 13.20709 | 77.69916 | 3016 ft | 86 kts | 90° |
| 2026-05-08 09:17 | 13.20698 | 77.70374 | 3016 ft | 50 kts | 98° |
| 2026-05-08 09:17 | 13.20634 | 77.70555 | 3016 ft | 16 kts | 117° |
| 2026-05-08 09:17 | 13.20582 | 77.70654 | 3016 ft | 16 kts | 118° |
| 2026-05-08 09:17 | 13.20534 | 77.70755 | 3015 ft | 16 kts | 104° |
| 2026-05-08 09:18 | 13.20529 | 77.70878 | 3015 ft | 18 kts | 89° |
| 2026-05-08 09:18 | 13.20527 | 77.71004 | 3015 ft | 18 kts | 91° |
| 2026-05-08 09:18 | 13.20526 | 77.71130 | 3015 ft | 18 kts | 87° |
| 2026-05-08 09:18 | 13.20525 | 77.71256 | 3015 ft | 18 kts | 92° |
| 2026-05-08 09:19 | 13.20522 | 77.71384 | 3015 ft | 18 kts | 89° |
| 2026-05-08 09:19 | 13.20524 | 77.71535 | 3016 ft | 25 kts | 89° |
| 2026-05-08 09:19 | 13.20521 | 77.71729 | 3016 ft | 30 kts | 90° |
| 2026-05-08 09:19 | 13.20519 | 77.71909 | 3016 ft | 20 kts | 90° |
| 2026-05-08 09:20 | 13.20519 | 77.72051 | 3016 ft | 20 kts | 90° |
| 2026-05-08 09:20 | 13.20456 | 77.72115 | 3016 ft | 12 kts | 178° |
| 2026-05-08 09:20 | 13.20371 | 77.72115 | 3016 ft | 13 kts | 181° |
| 2026-05-08 09:20 | 13.20229 | 77.72112 | 3016 ft | 27 kts | 180° |
| 2026-05-08 09:21 | 13.20049 | 77.72111 | 3016 ft | 26 kts | 180° |
| 2026-05-08 09:21 | 13.19901 | 77.72109 | 3016 ft | 7 kts | 180° |
| 2026-05-08 09:22 | 13.19864 | 77.72022 | 3016 ft | 0 kts | 269° |